sensor_id;sensor_type;location;lat;lon;timestamp;pressure;altitude;pressure_sealevel;temperature;humidity
78685;BME280;68002;52.310;6.990;2023-02-28T00:01:21;102798.50;;;1.52;68.74
78685;BME280;68002;52.310;6.990;2023-02-28T00:03:47;102801.97;;;1.54;68.17
78685;BME280;68002;52.310;6.990;2023-02-28T00:06:12;102806.38;;;1.55;68.70
78685;BME280;68002;52.310;6.990;2023-02-28T00:08:38;102795.88;;;1.52;69.17
78685;BME280;68002;52.310;6.990;2023-02-28T00:11:04;102802.81;;;1.56;69.41
78685;BME280;68002;52.310;6.990;2023-02-28T00:13:30;102801.94;;;1.57;68.74
78685;BME280;68002;52.310;6.990;2023-02-28T00:16:05;102803.66;;;1.58;69.85
78685;BME280;68002;52.310;6.990;2023-02-28T00:18:31;102792.25;;;1.56;69.24
78685;BME280;68002;52.310;6.990;2023-02-28T00:20:57;102795.69;;;1.60;68.66
78685;BME280;68002;52.310;6.990;2023-02-28T00:23:22;102792.19;;;1.61;68.03
78685;BME280;68002;52.310;6.990;2023-02-28T00:25:47;102787.75;;;1.61;69.31
78685;BME280;68002;52.310;6.990;2023-02-28T00:28:12;102792.97;;;1.64;69.48
78685;BME280;68002;52.310;6.990;2023-02-28T00:30:37;102791.19;;;1.65;69.09
78685;BME280;68002;52.310;6.990;2023-02-28T00:33:03;102790.38;;;1.63;68.97
78685;BME280;68002;52.310;6.990;2023-02-28T00:35:28;102801.72;;;1.66;68.53
78685;BME280;68002;52.310;6.990;2023-02-28T00:37:53;102793.81;;;1.65;68.86
78685;BME280;68002;52.310;6.990;2023-02-28T00:40:18;102798.16;;;1.67;69.15
78685;BME280;68002;52.310;6.990;2023-02-28T00:42:43;102802.50;;;1.70;68.99
78685;BME280;68002;52.310;6.990;2023-02-28T00:45:09;102801.63;;;1.69;68.99
78685;BME280;68002;52.310;6.990;2023-02-28T00:47:34;102797.25;;;1.70;69.14
78685;BME280;68002;52.310;6.990;2023-02-28T00:50:00;102788.41;;;1.71;68.44
78685;BME280;68002;52.310;6.990;2023-02-28T00:52:25;102783.09;;;1.72;68.85
78685;BME280;68002;52.310;6.990;2023-02-28T00:54:51;102780.41;;;1.75;68.09
78685;BME280;68002;52.310;6.990;2023-02-28T00:57:16;102779.53;;;1.75;68.38
78685;BME280;68002;52.310;6.990;2023-02-28T00:59:41;102783.94;;;1.74;68.81
78685;BME280;68002;52.310;6.990;2023-02-28T01:02:06;102787.47;;;1.73;68.37
78685;BME280;68002;52.310;6.990;2023-02-28T01:04:32;102790.91;;;1.77;68.14
78685;BME280;68002;52.310;6.990;2023-02-28T01:06:57;102778.69;;;1.73;68.47
78685;BME280;68002;52.310;6.990;2023-02-28T01:09:22;102778.69;;;1.73;68.26
78685;BME280;68002;52.310;6.990;2023-02-28T01:11:47;102781.25;;;1.76;68.07
78685;BME280;68002;52.310;6.990;2023-02-28T01:14:14;102791.78;;;1.76;68.13
78685;BME280;68002;52.310;6.990;2023-02-28T01:16:40;102781.25;;;1.76;68.98
78685;BME280;68002;52.310;6.990;2023-02-28T01:19:05;102785.63;;;1.77;68.06
78685;BME280;68002;52.310;6.990;2023-02-28T01:21:31;102788.28;;;1.77;68.08
78685;BME280;68002;52.310;6.990;2023-02-28T01:23:57;102776.78;;;1.79;68.32
78685;BME280;68002;52.310;6.990;2023-02-28T01:26:22;102782.06;;;1.79;68.18
78685;BME280;68002;52.310;6.990;2023-02-28T01:28:49;102782.00;;;1.82;68.10
78685;BME280;68002;52.310;6.990;2023-02-28T01:31:15;102780.22;;;1.81;67.77
78685;BME280;68002;52.310;6.990;2023-02-28T01:33:40;102785.50;;;1.83;67.29
78685;BME280;68002;52.310;6.990;2023-02-28T01:36:09;102783.75;;;1.82;67.80
78685;BME280;68002;52.310;6.990;2023-02-28T01:38:35;102791.66;;;1.82;68.37
78685;BME280;68002;52.310;6.990;2023-02-28T01:41:01;102791.63;;;1.83;67.90
78685;BME280;68002;52.310;6.990;2023-02-28T01:43:28;102782.06;;;1.79;68.52
78685;BME280;68002;52.310;6.990;2023-02-28T01:45:56;102774.97;;;1.81;68.32
78685;BME280;68002;52.310;6.990;2023-02-28T01:48:30;102772.41;;;1.78;68.29
78685;BME280;68002;52.310;6.990;2023-02-28T01:50:59;102772.38;;;1.80;68.84
78685;BME280;68002;52.310;6.990;2023-02-28T01:53:31;102784.72;;;1.79;68.72
78685;BME280;68002;52.310;6.990;2023-02-28T01:55:57;102783.84;;;1.79;68.91
78685;BME280;68002;52.310;6.990;2023-02-28T01:58:22;102779.53;;;1.75;69.14
78685;BME280;68002;52.310;6.990;2023-02-28T02:00:48;102775.19;;;1.72;68.44
78685;BME280;68002;52.310;6.990;2023-02-28T02:03:15;102772.50;;;1.75;69.15
78685;BME280;68002;52.310;6.990;2023-02-28T02:05:41;102782.16;;;1.75;69.00
78685;BME280;68002;52.310;6.990;2023-02-28T02:08:21;102783.94;;;1.74;69.50
78685;BME280;68002;52.310;6.990;2023-02-28T02:10:50;102776.94;;;1.73;69.60
78685;BME280;68002;52.310;6.990;2023-02-28T02:13:31;102778.66;;;1.74;69.90
78685;BME280;68002;52.310;6.990;2023-02-28T02:38:12;102778.81;;;1.68;69.54
78685;BME280;68002;52.310;6.990;2023-02-28T02:43:12;102779.75;;;1.66;69.26
78685;BME280;68002;52.310;6.990;2023-02-28T02:45:48;102766.59;;;1.64;69.70
78685;BME280;68002;52.310;6.990;2023-02-28T02:48:19;102767.44;;;1.65;69.28
78685;BME280;68002;52.310;6.990;2023-02-28T02:50:54;102767.44;;;1.65;69.41
78685;BME280;68002;52.310;6.990;2023-02-28T02:53:24;102775.38;;;1.63;69.58
78685;BME280;68002;52.310;6.990;2023-02-28T02:55:53;102770.13;;;1.63;69.31
78685;BME280;68002;52.310;6.990;2023-02-28T02:58:22;102776.31;;;1.62;69.75
78685;BME280;68002;52.310;6.990;2023-02-28T03:00:53;102784.13;;;1.65;69.43
78685;BME280;68002;52.310;6.990;2023-02-28T03:03:21;102770.91;;;1.67;70.00
78685;BME280;68002;52.310;6.990;2023-02-28T03:05:49;102771.75;;;1.69;70.26
78685;BME280;68002;52.310;6.990;2023-02-28T03:08:16;102767.34;;;1.69;69.18
78685;BME280;68002;52.310;6.990;2023-02-28T03:10:43;102781.38;;;1.71;70.20
78685;BME280;68002;52.310;6.990;2023-02-28T03:15:50;102777.91;;;1.69;70.14
78685;BME280;68002;52.310;6.990;2023-02-28T03:18:40;102769.16;;;1.67;70.48
78685;BME280;68002;52.310;6.990;2023-02-28T03:24:08;102763.91;;;1.66;70.57
78685;BME280;68002;52.310;6.990;2023-02-28T03:26:39;102748.09;;;1.66;70.11
78685;BME280;68002;52.310;6.990;2023-02-28T03:31:41;102753.25;;;1.70;69.21
78685;BME280;68002;52.310;6.990;2023-02-28T03:34:14;102750.69;;;1.67;70.39
78685;BME280;68002;52.310;6.990;2023-02-28T03:36:45;102751.69;;;1.62;70.62
78685;BME280;68002;52.310;6.990;2023-02-28T03:39:27;102761.41;;;1.60;70.81
78685;BME280;68002;52.310;6.990;2023-02-28T03:41:58;102753.63;;;1.55;70.70
78685;BME280;68002;52.310;6.990;2023-02-28T03:44:32;102768.47;;;1.59;70.22
78685;BME280;68002;52.310;6.990;2023-02-28T03:47:03;102762.28;;;1.60;70.42
78685;BME280;68002;52.310;6.990;2023-02-28T03:49:37;102767.59;;;1.59;70.80
78685;BME280;68002;52.310;6.990;2023-02-28T03:52:06;102765.75;;;1.62;70.19
78685;BME280;68002;52.310;6.990;2023-02-28T03:54:35;102764.81;;;1.65;70.41
78685;BME280;68002;52.310;6.990;2023-02-28T03:57:08;102744.84;;;1.55;69.80
78685;BME280;68002;52.310;6.990;2023-02-28T03:59:44;102762.16;;;1.65;69.59
78685;BME280;68002;52.310;6.990;2023-02-28T04:02:12;102756.84;;;1.68;69.56
78685;BME280;68002;52.310;6.990;2023-02-28T04:04:37;102755.06;;;1.68;70.26
78685;BME280;68002;52.310;6.990;2023-02-28T04:07:05;102757.66;;;1.70;70.36
78685;BME280;68002;52.310;6.990;2023-02-28T04:09:31;102756.88;;;1.66;70.57
78685;BME280;68002;52.310;6.990;2023-02-28T04:11:57;102750.69;;;1.67;70.11
78685;BME280;68002;52.310;6.990;2023-02-28T04:14:23;102754.25;;;1.66;69.86
78685;BME280;68002;52.310;6.990;2023-02-28T04:16:48;102758.78;;;1.60;71.08
78685;BME280;68002;52.310;6.990;2023-02-28T04:19:14;102755.34;;;1.56;70.27
78685;BME280;68002;52.310;6.990;2023-02-28T04:21:43;102759.69;;;1.59;70.67
78685;BME280;68002;52.310;6.990;2023-02-28T04:24:11;102756.19;;;1.58;70.07
78685;BME280;68002;52.310;6.990;2023-02-28T04:26:36;102765.00;;;1.57;69.89
78685;BME280;68002;52.310;6.990;2023-02-28T04:29:04;102768.50;;;1.58;70.49
78685;BME280;68002;52.310;6.990;2023-02-28T04:31:29;102774.59;;;1.60;70.31
78685;BME280;68002;52.310;6.990;2023-02-28T04:33:54;102764.94;;;1.60;70.11
78685;BME280;68002;52.310;6.990;2023-02-28T04:36:20;102758.78;;;1.60;69.72
78685;BME280;68002;52.310;6.990;2023-02-28T04:38:46;102760.56;;;1.59;69.89
78685;BME280;68002;52.310;6.990;2023-02-28T04:41:12;102773.75;;;1.59;70.11
78685;BME280;68002;52.310;6.990;2023-02-28T04:43:38;102777.28;;;1.58;69.81
78685;BME280;68002;52.310;6.990;2023-02-28T04:46:04;102772.78;;;1.62;69.63
78685;BME280;68002;52.310;6.990;2023-02-28T04:48:32;102776.34;;;1.61;71.27
78685;BME280;68002;52.310;6.990;2023-02-28T04:51:01;102771.16;;;1.56;70.52
78685;BME280;68002;52.310;6.990;2023-02-28T04:53:28;102764.22;;;1.54;69.97
78685;BME280;68002;52.310;6.990;2023-02-28T04:55:53;102766.81;;;1.55;71.60
78685;BME280;68002;52.310;6.990;2023-02-28T04:58:19;102774.72;;;1.55;70.89
78685;BME280;68002;52.310;6.990;2023-02-28T05:00:44;102772.09;;;1.55;71.50
78685;BME280;68002;52.310;6.990;2023-02-28T05:03:09;102769.41;;;1.57;71.62
78685;BME280;68002;52.310;6.990;2023-02-28T05:05:34;102775.56;;;1.57;70.83
78685;BME280;68002;52.310;6.990;2023-02-28T05:08:00;102770.28;;;1.57;70.52
78685;BME280;68002;52.310;6.990;2023-02-28T05:10:25;102768.53;;;1.56;71.20
78685;BME280;68002;52.310;6.990;2023-02-28T05:12:50;102772.09;;;1.55;71.30
78685;BME280;68002;52.310;6.990;2023-02-28T05:15:16;102776.53;;;1.53;71.03
78685;BME280;68002;52.310;6.990;2023-02-28T05:17:41;102773.94;;;1.50;70.99
78685;BME280;68002;52.310;6.990;2023-02-28T05:20:08;102773.84;;;1.55;71.33
78685;BME280;68002;52.310;6.990;2023-02-28T05:22:33;102786.09;;;1.57;70.97
78685;BME280;68002;52.310;6.990;2023-02-28T05:24:58;102784.34;;;1.56;70.67
78685;BME280;68002;52.310;6.990;2023-02-28T05:27:23;102777.34;;;1.55;71.70
78685;BME280;68002;52.310;6.990;2023-02-28T05:29:49;102774.75;;;1.52;70.62
78685;BME280;68002;52.310;6.990;2023-02-28T05:32:14;102793.00;;;1.61;70.89
78685;BME280;68002;52.310;6.990;2023-02-28T05:34:40;102786.03;;;1.60;71.32
78685;BME280;68002;52.310;6.990;2023-02-28T05:37:07;102789.53;;;1.61;71.01
78685;BME280;68002;52.310;6.990;2023-02-28T05:39:35;102799.16;;;1.62;71.21
78685;BME280;68002;52.310;6.990;2023-02-28T05:42:01;102785.16;;;1.60;70.54
78685;BME280;68002;52.310;6.990;2023-02-28T05:44:26;102795.69;;;1.60;71.23
78685;BME280;68002;52.310;6.990;2023-02-28T05:46:51;102792.22;;;1.59;70.62
78685;BME280;68002;52.310;6.990;2023-02-28T05:49:16;102794.84;;;1.59;70.53
78685;BME280;68002;52.310;6.990;2023-02-28T05:51:41;102786.19;;;1.53;71.25
78685;BME280;68002;52.310;6.990;2023-02-28T05:54:07;102795.03;;;1.52;70.95
78685;BME280;68002;52.310;6.990;2023-02-28T05:56:32;102800.38;;;1.47;71.65
78685;BME280;68002;52.310;6.990;2023-02-28T05:58:58;102798.66;;;1.45;72.15
78685;BME280;68002;52.310;6.990;2023-02-28T06:01:34;102801.31;;;1.45;72.20
78685;BME280;68002;52.310;6.990;2023-02-28T06:04:01;102803.94;;;1.45;71.50
78685;BME280;68002;52.310;6.990;2023-02-28T06:06:27;102808.28;;;1.47;72.31
78685;BME280;68002;52.310;6.990;2023-02-28T06:08:52;102812.72;;;1.45;72.32
78685;BME280;68002;52.310;6.990;2023-02-28T06:11:17;102809.25;;;1.43;72.09
78685;BME280;68002;52.310;6.990;2023-02-28T06:13:42;102812.72;;;1.45;72.07
78685;BME280;68002;52.310;6.990;2023-02-28T06:16:10;102817.13;;;1.45;71.37
78685;BME280;68002;52.310;6.990;2023-02-28T06:18:35;102817.13;;;1.45;72.06
78685;BME280;68002;52.310;6.990;2023-02-28T06:21:01;102819.75;;;1.46;71.90
78685;BME280;68002;52.310;6.990;2023-02-28T06:23:26;102824.03;;;1.52;71.76
78685;BME280;68002;52.310;6.990;2023-02-28T06:25:51;102823.97;;;1.53;71.68
78685;BME280;68002;52.310;6.990;2023-02-28T06:28:16;102816.94;;;1.54;71.14
78685;BME280;68002;52.310;6.990;2023-02-28T06:30:42;102828.28;;;1.57;71.42
78685;BME280;68002;52.310;6.990;2023-02-28T06:33:07;102823.91;;;1.56;71.35
78685;BME280;68002;52.310;6.990;2023-02-28T06:35:32;102831.84;;;1.55;71.13
78685;BME280;68002;52.310;6.990;2023-02-28T06:37:57;102830.94;;;1.56;70.76
78685;BME280;68002;52.310;6.990;2023-02-28T06:40:22;102827.47;;;1.55;71.13
78685;BME280;68002;52.310;6.990;2023-02-28T06:42:48;102827.41;;;1.57;70.55
78685;BME280;68002;52.310;6.990;2023-02-28T06:45:13;102837.09;;;1.56;70.66
78685;BME280;68002;52.310;6.990;2023-02-28T06:47:40;102837.09;;;1.56;70.41
78685;BME280;68002;52.310;6.990;2023-02-28T06:50:10;102834.47;;;1.56;70.24
78685;BME280;68002;52.310;6.990;2023-02-28T06:52:35;102847.59;;;1.59;70.65
78685;BME280;68002;52.310;6.990;2023-02-28T06:55:01;102852.75;;;1.64;70.56
78685;BME280;68002;52.310;6.990;2023-02-28T06:57:30;102841.28;;;1.66;70.14
78685;BME280;68002;52.310;6.990;2023-02-28T06:59:55;102841.16;;;1.71;69.98
78685;BME280;68002;52.310;6.990;2023-02-28T07:02:20;102843.72;;;1.75;69.41
78685;BME280;68002;52.310;6.990;2023-02-28T07:04:45;102847.94;;;1.82;69.44
78685;BME280;68002;52.310;6.990;2023-02-28T07:07:11;102850.44;;;1.88;68.92
78685;BME280;68002;52.310;6.990;2023-02-28T07:09:36;102848.56;;;1.93;69.73
78685;BME280;68002;52.310;6.990;2023-02-28T07:12:01;102851.16;;;1.95;68.97
78685;BME280;68002;52.310;6.990;2023-02-28T07:14:26;102844.19;;;1.92;68.26
78685;BME280;68002;52.310;6.990;2023-02-28T07:16:51;102848.66;;;1.89;67.81
78685;BME280;68002;52.310;6.990;2023-02-28T07:19:16;102852.25;;;1.86;68.23
78685;BME280;68002;52.310;6.990;2023-02-28T07:21:42;102852.34;;;1.82;68.04
78685;BME280;68002;52.310;6.990;2023-02-28T07:24:07;102852.47;;;1.76;67.79
78685;BME280;68002;52.310;6.990;2023-02-28T07:26:32;102856.91;;;1.75;67.51
78685;BME280;68002;52.310;6.990;2023-02-28T07:28:57;102842.91;;;1.72;66.72
78685;BME280;68002;52.310;6.990;2023-02-28T07:31:23;102855.25;;;1.70;66.54
78685;BME280;68002;52.310;6.990;2023-02-28T07:33:48;102852.66;;;1.68;65.75
78685;BME280;68002;52.310;6.990;2023-02-28T07:36:16;102860.56;;;1.68;65.63
78685;BME280;68002;52.310;6.990;2023-02-28T07:38:43;102864.13;;;1.66;65.62
78685;BME280;68002;52.310;6.990;2023-02-28T07:41:08;102860.69;;;1.62;65.25
78685;BME280;68002;52.310;6.990;2023-02-28T07:43:34;102867.66;;;1.66;65.64
78685;BME280;68002;52.310;6.990;2023-02-28T07:46:04;102867.66;;;1.65;65.62
78685;BME280;68002;52.310;6.990;2023-02-28T07:48:30;102858.06;;;1.62;64.18
78685;BME280;68002;52.310;6.990;2023-02-28T07:50:56;102865.91;;;1.65;64.57
78685;BME280;68002;52.310;6.990;2023-02-28T07:53:21;102857.06;;;1.68;64.29
78685;BME280;68002;52.310;6.990;2023-02-28T07:55:47;102857.09;;;1.66;64.61
78685;BME280;68002;52.310;6.990;2023-02-28T07:58:12;102860.63;;;1.65;64.01
78685;BME280;68002;52.310;6.990;2023-02-28T08:00:37;102859.75;;;1.66;63.86
78685;BME280;68002;52.310;6.990;2023-02-28T08:03:02;102864.84;;;1.72;63.12
78685;BME280;68002;52.310;6.990;2023-02-28T08:05:28;102866.56;;;1.75;62.61
78685;BME280;68002;52.310;6.990;2023-02-28T08:07:53;102867.41;;;1.77;62.46
78685;BME280;68002;52.310;6.990;2023-02-28T08:10:18;102868.13;;;1.85;62.96
78685;BME280;68002;52.310;6.990;2023-02-28T08:12:43;102871.44;;;1.93;61.49
78685;BME280;68002;52.310;6.990;2023-02-28T08:15:09;102874.81;;;1.99;62.74
78685;BME280;68002;52.310;6.990;2023-02-28T08:17:34;102875.50;;;2.08;63.13
78685;BME280;68002;52.310;6.990;2023-02-28T08:19:59;102879.72;;;2.15;63.48
78685;BME280;68002;52.310;6.990;2023-02-28T08:22:24;102878.78;;;2.17;61.82
78685;BME280;68002;52.310;6.990;2023-02-28T08:24:49;102870.69;;;2.25;60.76
78685;BME280;68002;52.310;6.990;2023-02-28T08:27:15;102869.63;;;2.32;60.85
78685;BME280;68002;52.310;6.990;2023-02-28T08:29:40;102865.19;;;2.34;61.04
78685;BME280;68002;52.310;6.990;2023-02-28T08:32:06;102878.03;;;2.47;59.81
78685;BME280;68002;52.310;6.990;2023-02-28T08:34:32;102871.59;;;2.59;61.28
78685;BME280;68002;52.310;6.990;2023-02-28T08:36:57;102878.31;;;2.72;61.16
78685;BME280;68002;52.310;6.990;2023-02-28T08:39:23;102871.84;;;2.83;61.55
78685;BME280;68002;52.310;6.990;2023-02-28T08:41:48;102877.72;;;2.94;60.44
78685;BME280;68002;52.310;6.990;2023-02-28T08:44:13;102878.28;;;3.05;60.49
78685;BME280;68002;52.310;6.990;2023-02-28T08:46:38;102876.25;;;3.15;58.16
78685;BME280;68002;52.310;6.990;2023-02-28T08:49:03;102885.50;;;3.31;59.69
78685;BME280;68002;52.310;6.990;2023-02-28T08:51:29;102880.63;;;3.47;58.30
78685;BME280;68002;52.310;6.990;2023-02-28T08:53:57;102878.53;;;3.58;56.92
78685;BME280;68002;52.310;6.990;2023-02-28T08:56:23;102877.81;;;3.82;58.08
78685;BME280;68002;52.310;6.990;2023-02-28T08:58:50;102874.56;;;4.01;56.31
78685;BME280;68002;52.310;6.990;2023-02-28T09:01:16;102874.25;;;4.38;57.55
78685;BME280;68002;52.310;6.990;2023-02-28T09:03:42;102872.13;;;4.75;57.77
78685;BME280;68002;52.310;6.990;2023-02-28T09:06:09;102867.59;;;5.03;57.19
78685;BME280;68002;52.310;6.990;2023-02-28T09:08:35;102876.78;;;5.18;54.29
78685;BME280;68002;52.310;6.990;2023-02-28T09:11:01;102867.69;;;5.25;52.82
78685;BME280;68002;52.310;6.990;2023-02-28T09:13:27;102873.94;;;5.47;53.99
78685;BME280;68002;52.310;6.990;2023-02-28T09:15:53;102875.97;;;5.87;53.88
78685;BME280;68002;52.310;6.990;2023-02-28T09:18:19;102869.44;;;6.39;52.48
78685;BME280;68002;52.310;6.990;2023-02-28T09:20:45;102866.13;;;6.75;51.60
78685;BME280;68002;52.310;6.990;2023-02-28T09:23:11;102867.53;;;7.43;52.80
78685;BME280;68002;52.310;6.990;2023-02-28T09:25:37;102853.22;;;8.38;51.75
78685;BME280;68002;52.310;6.990;2023-02-28T09:28:03;102854.13;;;8.90;48.51
78685;BME280;68002;52.310;6.990;2023-02-28T09:30:28;102847.31;;;9.50;46.05
78685;BME280;68002;52.310;6.990;2023-02-28T09:32:53;102844.34;;;9.71;42.69
78685;BME280;68002;52.310;6.990;2023-02-28T09:35:20;102839.69;;;10.06;43.96
78685;BME280;68002;52.310;6.990;2023-02-28T09:37:47;102838.50;;;10.11;31.70
78685;BME280;68002;52.310;6.990;2023-02-28T09:40:12;102836.84;;;9.93;33.84
78685;BME280;68002;52.310;6.990;2023-02-28T09:42:38;102845.53;;;9.66;34.89
78685;BME280;68002;52.310;6.990;2023-02-28T09:45:19;102843.34;;;10.21;36.26
78685;BME280;68002;52.310;6.990;2023-02-28T09:47:48;102848.53;;;10.53;30.47
78685;BME280;68002;52.310;6.990;2023-02-28T09:50:22;102840.06;;;10.61;32.90
78685;BME280;68002;52.310;6.990;2023-02-28T09:52:54;102853.16;;;10.36;32.04
78685;BME280;68002;52.310;6.990;2023-02-28T09:55:30;102839.91;;;10.64;33.44
78685;BME280;68002;52.310;6.990;2023-02-28T09:57:57;102842.94;;;10.58;30.83
78685;BME280;68002;52.310;6.990;2023-02-28T10:00:39;102840.47;;;10.39;32.82
78685;BME280;68002;52.310;6.990;2023-02-28T10:03:16;102838.47;;;11.02;34.58
78685;BME280;68002;52.310;6.990;2023-02-28T10:05:56;102836.25;;;11.93;31.39
78685;BME280;68002;52.310;6.990;2023-02-28T10:08:36;102829.59;;;12.12;28.67
78685;BME280;68002;52.310;6.990;2023-02-28T10:11:06;102824.16;;;12.00;31.39
78685;BME280;68002;52.310;6.990;2023-02-28T10:13:54;102837.78;;;12.24;32.19
78685;BME280;68002;52.310;6.990;2023-02-28T10:16:35;102824.41;;;12.63;28.18
78685;BME280;68002;52.310;6.990;2023-02-28T10:19:06;102816.75;;;12.57;27.58
78685;BME280;68002;52.310;6.990;2023-02-28T10:21:37;102829.84;;;12.49;27.39
78685;BME280;68002;52.310;6.990;2023-02-28T10:24:32;102815.38;;;12.25;25.32
78685;BME280;68002;52.310;6.990;2023-02-28T10:27:12;102827.38;;;12.19;25.50
78685;BME280;68002;52.310;6.990;2023-02-28T10:29:40;102823.56;;;12.09;25.90
78685;BME280;68002;52.310;6.990;2023-02-28T10:32:09;102825.03;;;12.00;25.99
78685;BME280;68002;52.310;6.990;2023-02-28T10:34:36;102818.53;;;12.44;27.92
78685;BME280;68002;52.310;6.990;2023-02-28T10:37:01;102818.63;;;12.69;25.15
78685;BME280;68002;52.310;6.990;2023-02-28T10:39:35;102824.44;;;12.88;26.57
78685;BME280;68002;52.310;6.990;2023-02-28T10:42:00;102828.22;;;12.20;24.34
78685;BME280;68002;52.310;6.990;2023-02-28T10:44:26;102821.59;;;12.52;26.54
78685;BME280;68002;52.310;6.990;2023-02-28T10:46:51;102824.06;;;13.06;27.04
78685;BME280;68002;52.310;6.990;2023-02-28T10:49:22;102829.75;;;13.52;24.56
78685;BME280;68002;52.310;6.990;2023-02-28T10:51:52;102819.72;;;12.79;24.40
78685;BME280;68002;52.310;6.990;2023-02-28T10:54:23;102823.97;;;13.08;23.70
78685;BME280;68002;52.310;6.990;2023-02-28T10:57:16;102815.91;;;13.21;24.95
78685;BME280;68002;52.310;6.990;2023-02-28T10:59:42;102826.66;;;13.21;24.39
78685;BME280;68002;52.310;6.990;2023-02-28T11:04:54;102810.56;;;13.82;24.53
78685;BME280;68002;52.310;6.990;2023-02-28T11:07:21;102808.03;;;13.43;24.11
78685;BME280;68002;52.310;6.990;2023-02-28T11:09:52;102807.59;;;13.49;25.24
78685;BME280;68002;52.310;6.990;2023-02-28T11:12:37;102807.78;;;12.83;23.97
78685;BME280;68002;52.310;6.990;2023-02-28T11:15:25;102795.63;;;12.52;25.99
78685;BME280;68002;52.310;6.990;2023-02-28T11:17:57;102818.25;;;13.00;24.89
78685;BME280;68002;52.310;6.990;2023-02-28T11:20:26;102805.50;;;12.64;23.37
78685;BME280;68002;52.310;6.990;2023-02-28T11:22:53;102806.97;;;12.43;25.31
78685;BME280;68002;52.310;6.990;2023-02-28T11:25:23;102804.31;;;13.33;25.51
78685;BME280;68002;52.310;6.990;2023-02-28T11:27:52;102793.25;;;13.73;25.25
78685;BME280;68002;52.310;6.990;2023-02-28T11:30:28;102800.50;;;13.60;23.31
78685;BME280;68002;52.310;6.990;2023-02-28T11:32:53;102792.19;;;13.63;24.00
78685;BME280;68002;52.310;6.990;2023-02-28T11:35:39;102780.66;;;13.97;22.39
78685;BME280;68002;52.310;6.990;2023-02-28T11:38:09;102786.97;;;13.49;22.62
78685;BME280;68002;52.310;6.990;2023-02-28T11:40:51;102788.34;;;13.55;23.13
78685;BME280;68002;52.310;6.990;2023-02-28T11:46:49;102790.41;;;14.58;23.30
78685;BME280;68002;52.310;6.990;2023-02-28T11:52:02;102783.53;;;14.07;22.66
78685;BME280;68002;52.310;6.990;2023-02-28T12:03:22;102774.22;;;12.51;24.26
78685;BME280;68002;52.310;6.990;2023-02-28T12:06:13;102777.22;;;13.10;23.72
78685;BME280;68002;52.310;6.990;2023-02-28T12:08:53;102776.97;;;13.51;23.73
78685;BME280;68002;52.310;6.990;2023-02-28T12:14:34;102760.59;;;14.83;22.51
78685;BME280;68002;52.310;6.990;2023-02-28T12:22:27;102752.38;;;14.28;21.72
78685;BME280;68002;52.310;6.990;2023-02-28T12:25:18;102751.63;;;14.61;21.40
78685;BME280;68002;52.310;6.990;2023-02-28T12:27:47;102744.31;;;14.74;20.92
78685;BME280;68002;52.310;6.990;2023-02-28T12:32:43;102739.41;;;14.79;21.27
78685;BME280;68002;52.310;6.990;2023-02-28T12:37:38;102742.59;;;14.38;21.07
78685;BME280;68002;52.310;6.990;2023-02-28T12:40:11;102735.97;;;14.31;20.88
78685;BME280;68002;52.310;6.990;2023-02-28T12:42:40;102732.81;;;14.13;21.21
78685;BME280;68002;52.310;6.990;2023-02-28T12:45:16;102731.09;;;13.89;21.39
78685;BME280;68002;52.310;6.990;2023-02-28T12:47:42;102727.31;;;14.39;21.74
78685;BME280;68002;52.310;6.990;2023-02-28T12:50:10;102730.72;;;14.75;21.48
78685;BME280;68002;52.310;6.990;2023-02-28T12:52:53;102721.63;;;14.65;20.74
78685;BME280;68002;52.310;6.990;2023-02-28T13:04:04;102702.19;;;14.95;19.56
78685;BME280;68002;52.310;6.990;2023-02-28T13:09:29;102704.81;;;14.16;21.36
78685;BME280;68002;52.310;6.990;2023-02-28T13:11:56;102692.13;;;14.75;20.90
78685;BME280;68002;52.310;6.990;2023-02-28T13:14:35;102687.94;;;14.71;19.99
78685;BME280;68002;52.310;6.990;2023-02-28T13:19:37;102683.78;;;15.33;20.45
78685;BME280;68002;52.310;6.990;2023-02-28T13:22:02;102680.63;;;15.17;20.49
78685;BME280;68002;52.310;6.990;2023-02-28T13:24:54;102682.34;;;14.96;20.42
78685;BME280;68002;52.310;6.990;2023-02-28T13:27:35;102687.38;;;15.00;19.76
78685;BME280;68002;52.310;6.990;2023-02-28T13:38:59;102667.22;;;14.38;20.06
78685;BME280;68002;52.310;6.990;2023-02-28T13:46:28;102668.25;;;14.92;20.21
78685;BME280;68002;52.310;6.990;2023-02-28T13:48:53;102681.59;;;15.27;20.36
78685;BME280;68002;52.310;6.990;2023-02-28T13:51:39;102665.41;;;15.81;19.69
78685;BME280;68002;52.310;6.990;2023-02-28T13:57:08;102668.97;;;15.28;19.18
78685;BME280;68002;52.310;6.990;2023-02-28T14:00:01;102681.97;;;14.78;19.00
78685;BME280;68002;52.310;6.990;2023-02-28T14:05:27;102688.94;;;15.58;19.59
78685;BME280;68002;52.310;6.990;2023-02-28T14:07:56;102675.31;;;15.91;19.20
78685;BME280;68002;52.310;6.990;2023-02-28T14:10:35;102677.81;;;16.15;19.87
78685;BME280;68002;52.310;6.990;2023-02-28T14:15:58;102681.94;;;16.19;19.81
78685;BME280;68002;52.310;6.990;2023-02-28T14:18:47;102665.72;;;15.98;18.87
78685;BME280;68002;52.310;6.990;2023-02-28T14:21:29;102678.66;;;15.08;19.62
78685;BME280;68002;52.310;6.990;2023-02-28T14:24:24;102666.66;;;14.79;20.49
78685;BME280;68002;52.310;6.990;2023-02-28T14:27:00;102668.75;;;14.64;20.92
78685;BME280;68002;52.310;6.990;2023-02-28T14:32:28;102657.56;;;15.24;20.78
78685;BME280;68002;52.310;6.990;2023-02-28T14:35:20;102650.34;;;15.47;19.79
78685;BME280;68002;52.310;6.990;2023-02-28T14:37:49;102658.81;;;15.74;20.42
78685;BME280;68002;52.310;6.990;2023-02-28T14:40:17;102656.81;;;15.87;20.54
78685;BME280;68002;52.310;6.990;2023-02-28T14:42:56;102660.94;;;16.02;19.36
78685;BME280;68002;52.310;6.990;2023-02-28T14:45:22;102653.94;;;15.68;20.53
78685;BME280;68002;52.310;6.990;2023-02-28T14:47:51;102652.56;;;15.73;20.04
78685;BME280;68002;52.310;6.990;2023-02-28T14:50:19;102647.13;;;15.53;20.15